Time;durP1;ratioP1;P1;durP2;ratioP2;P2;SDS_P1;SDS_P2;PMS_P1;PMS_P2;Temp;Humidity;BMP_temperature;BMP_pressure;BME280_temperature;BME280_humidity;BME280_pressure;Samples;Min_cycle;Max_cycle;Signal;HPM_P1;HPM_P2
2021/11/14 00:01:47;;;;;;;13.18;8.57;;;;;17.20;101541.00;;;;5049255;28;20199;-83
2021/11/14 00:04:15;;;;;;;11.25;8.13;;;;;17.20;101544.00;;;;5050077;28;20194;-83
2021/11/14 00:06:43;;;;;;;11.07;7.78;;;;;17.20;101541.00;;;;5051077;28;20187;-83
2021/11/14 00:09:11;;;;;;;16.67;9.07;;;;;17.20;101546.00;;;;5050738;28;20618;-83
2021/11/14 00:11:38;;;;;;;10.43;8.40;;;;;17.20;101557.00;;;;5049835;28;20626;-83
2021/11/14 00:14:05;;;;;;;11.02;8.70;;;;;17.20;101551.00;;;;5049540;28;20223;-83
2021/11/14 00:16:33;;;;;;;10.40;7.60;;;;;17.20;101556.00;;;;5036800;28;20204;-83
2021/11/14 00:19:01;;;;;;;11.00;7.97;;;;;17.20;101551.00;;;;5038250;28;20228;-83
2021/11/14 00:21:30;;;;;;;12.43;9.00;;;;;17.20;101555.00;;;;5044107;28;20781;-83
2021/11/14 00:23:59;;;;;;;11.35;8.32;;;;;17.20;101572.00;;;;5035658;28;20200;-83
2021/11/14 00:26:27;;;;;;;10.90;7.53;;;;;17.20;101578.00;;;;5049443;28;20282;-82
2021/11/14 00:28:54;;;;;;;11.40;7.93;;;;;17.20;101580.00;;;;5031566;28;20200;-83
2021/11/14 00:31:22;;;;;;;14.30;7.85;;;;;17.20;101584.00;;;;5045205;28;20705;-83
2021/11/14 00:33:51;;;;;;;9.25;7.05;;;;;17.20;101589.00;;;;5032809;28;20948;-83
2021/11/14 00:36:21;;;;;;;13.30;8.18;;;;;17.20;101587.00;;;;5039057;28;20188;-83
2021/11/14 00:38:50;;;;;;;10.63;7.13;;;;;17.20;101591.00;;;;5034472;28;20228;-83
2021/11/14 00:41:17;;;;;;;10.98;7.20;;;;;17.20;101585.00;;;;5042076;28;20242;-84
2021/11/14 00:43:45;;;;;;;9.68;6.75;;;;;17.20;101591.00;;;;5035384;28;20581;-83
2021/11/14 00:46:14;;;;;;;9.20;6.93;;;;;17.20;101585.00;;;;5046253;28;20195;-83
2021/11/14 00:48:42;;;;;;;10.55;7.70;;;;;17.20;101584.00;;;;5031562;28;20207;-83
2021/11/14 00:51:09;;;;;;;9.95;7.32;;;;;17.20;101590.00;;;;5031189;28;20605;-83
2021/11/14 00:53:38;;;;;;;10.65;7.55;;;;;17.10;101585.00;;;;5030123;28;20201;-83
2021/11/14 00:56:06;;;;;;;12.15;7.95;;;;;17.20;101589.00;;;;5031238;28;20203;-83
2021/11/14 00:58:33;;;;;;;9.90;6.75;;;;;17.10;101593.00;;;;5036678;28;20199;-83
2021/11/14 01:01:01;;;;;;;9.77;6.78;;;;;17.10;101594.00;;;;5042453;28;20199;-83
2021/11/14 01:03:29;;;;;;;10.65;6.82;;;;;17.10;101593.00;;;;5038693;28;20681;-83
2021/11/14 01:05:56;;;;;;;10.05;7.05;;;;;17.10;101597.00;;;;5031276;28;20749;-83
2021/11/14 01:08:24;;;;;;;9.85;7.88;;;;;17.10;101602.00;;;;5034212;28;20209;-83
2021/11/14 01:10:54;;;;;;;9.60;6.82;;;;;17.10;101609.00;;;;5046553;28;20203;-83
2021/11/14 01:13:22;;;;;;;9.73;6.57;;;;;17.10;101612.00;;;;5030000;28;20200;-83
2021/11/14 01:15:51;;;;;;;10.73;6.78;;;;;17.10;101609.00;;;;5037157;28;20690;-84
2021/11/14 01:18:20;;;;;;;9.80;6.10;;;;;17.10;101616.00;;;;5043230;28;20210;-83
2021/11/14 01:20:50;;;;;;;8.98;5.97;;;;;17.10;101617.00;;;;5045603;28;20410;-83
2021/11/14 01:23:18;;;;;;;10.00;6.22;;;;;17.10;101620.00;;;;5049078;28;20192;-84
2021/11/14 01:25:47;;;;;;;11.10;6.80;;;;;17.10;101619.00;;;;5043160;28;20577;-83
2021/11/14 01:28:17;;;;;;;9.35;6.63;;;;;17.10;101627.00;;;;5034023;28;20652;-83
2021/11/14 01:30:46;;;;;;;8.55;6.07;;;;;17.10;101629.00;;;;5030469;28;20200;-83
2021/11/14 01:33:14;;;;;;;10.95;7.35;;;;;17.10;101630.00;;;;5029621;28;20192;-83
2021/11/14 01:35:43;;;;;;;9.93;7.05;;;;;17.10;101632.00;;;;5040442;28;20223;-83
2021/11/14 01:38:10;;;;;;;8.95;6.72;;;;;17.10;101634.00;;;;5048469;28;20226;-84
2021/11/14 01:40:41;;;;;;;11.20;7.55;;;;;17.10;101630.00;;;;5041921;28;20257;-83
2021/11/14 01:43:10;;;;;;;10.13;6.70;;;;;17.10;101638.00;;;;5047318;28;20541;-84
2021/11/14 01:45:41;;;;;;;9.50;6.95;;;;;17.10;101633.00;;;;5040328;28;20200;-83
2021/11/14 01:48:09;;;;;;;10.55;6.93;;;;;17.10;101633.00;;;;5035184;28;20693;-84
2021/11/14 01:50:37;;;;;;;8.88;6.97;;;;;17.10;101633.00;;;;5047871;28;20239;-83
2021/11/14 01:53:04;;;;;;;9.45;7.22;;;;;17.10;101641.00;;;;5045775;28;20204;-83
2021/11/14 01:55:33;;;;;;;11.13;7.55;;;;;17.10;101649.00;;;;5035850;28;20234;-84
2021/11/14 01:58:02;;;;;;;9.60;6.95;;;;;17.10;101652.00;;;;5034640;28;20203;-84
2021/11/14 02:00:33;;;;;;;8.73;6.57;;;;;17.10;101648.00;;;;5048031;28;20202;-83
2021/11/14 02:03:02;;;;;;;9.57;6.47;;;;;17.10;101653.00;;;;5046946;28;20283;-83
2021/11/14 02:05:31;;;;;;;10.07;7.20;;;;;17.10;101651.00;;;;5029460;28;20204;-84
2021/11/14 02:08:02;;;;;;;9.50;6.57;;;;;17.10;101655.00;;;;5029811;28;20199;-84
2021/11/14 02:10:31;;;;;;;9.43;6.70;;;;;17.10;101657.00;;;;5029070;28;20208;-84
2021/11/14 02:12:59;;;;;;;10.40;7.65;;;;;17.10;101656.00;;;;5038456;28;20199;-83
2021/11/14 02:15:27;;;;;;;11.48;7.50;;;;;17.10;101650.00;;;;5028913;28;20235;-83
2021/11/14 02:17:55;;;;;;;9.32;6.70;;;;;17.20;101660.00;;;;5028628;28;20204;-83
2021/11/14 02:20:24;;;;;;;11.68;8.10;;;;;17.10;101659.00;;;;5031603;28;20269;-83
2021/11/14 02:22:52;;;;;;;12.65;7.18;;;;;17.20;101659.00;;;;5039056;28;20197;-83
2021/11/14 02:25:21;;;;;;;11.32;8.45;;;;;17.10;101657.00;;;;5029224;28;20207;-83
2021/11/14 02:27:51;;;;;;;10.60;7.50;;;;;17.10;101661.00;;;;5029051;28;20199;-83
2021/11/14 02:30:20;;;;;;;10.70;7.32;;;;;17.20;101669.00;;;;5030769;28;20200;-83
2021/11/14 02:32:49;;;;;;;9.35;6.78;;;;;17.10;101660.00;;;;5028420;28;20220;-83
2021/11/14 02:35:17;;;;;;;7.80;6.05;;;;;17.10;101662.00;;;;5030198;28;20231;-84
2021/11/14 02:37:46;;;;;;;14.38;8.07;;;;;17.10;101671.00;;;;5048207;28;20241;-83
2021/11/14 02:40:15;;;;;;;12.27;6.57;;;;;17.10;101675.00;;;;5035537;28;20204;-83
2021/11/14 02:42:43;;;;;;;9.63;6.45;;;;;17.10;101684.00;;;;5039939;28;20204;-83
2021/11/14 02:45:11;;;;;;;10.55;7.13;;;;;17.10;101674.00;;;;5041883;28;20570;-83
2021/11/14 02:47:38;;;;;;;10.38;7.75;;;;;17.10;101676.00;;;;5029166;28;21117;-83
2021/11/14 02:50:09;;;;;;;10.50;6.65;;;;;17.10;101677.00;;;;5028723;28;20200;-83
2021/11/14 02:52:37;;;;;;;9.90;6.78;;;;;17.10;101690.00;;;;5028489;28;20204;-83
2021/11/14 02:55:08;;;;;;;9.43;7.18;;;;;17.10;101687.00;;;;5028855;28;20224;-83
2021/11/14 02:57:36;;;;;;;9.65;6.95;;;;;17.10;101689.00;;;;5034067;28;20195;-84
2021/11/14 03:00:04;;;;;;;10.25;7.03;;;;;17.10;101694.00;;;;5038722;28;20199;-83
2021/11/14 03:02:32;;;;;;;10.77;8.02;;;;;17.10;101693.00;;;;5029051;28;20666;-83
2021/11/14 03:04:59;;;;;;;11.45;7.25;;;;;17.10;101694.00;;;;5028388;28;20662;-83
2021/11/14 03:07:26;;;;;;;10.77;7.88;;;;;17.10;101700.00;;;;5037507;28;20199;-84
2021/11/14 03:09:53;;;;;;;11.57;6.90;;;;;17.10;101708.00;;;;5042305;28;20627;-84
2021/11/14 03:12:22;;;;;;;8.43;6.72;;;;;17.10;101703.00;;;;5032909;28;20218;-84
2021/11/14 03:14:49;;;;;;;11.20;6.55;;;;;17.10;101711.00;;;;5032597;28;20219;-83
2021/11/14 03:17:16;;;;;;;10.65;6.95;;;;;17.10;101709.00;;;;5036274;28;20187;-83
2021/11/14 03:19:44;;;;;;;9.10;6.13;;;;;17.10;101713.00;;;;5049335;28;20219;-84
2021/11/14 03:22:11;;;;;;;10.27;7.45;;;;;17.10;101713.00;;;;5049984;28;20210;-83
2021/11/14 03:24:39;;;;;;;11.50;7.60;;;;;17.10;101721.00;;;;5050380;28;20684;-83
2021/11/14 03:27:07;;;;;;;11.25;7.40;;;;;17.00;101724.00;;;;5033131;28;20192;-84
2021/11/14 03:29:36;;;;;;;12.25;6.45;;;;;17.00;101721.00;;;;5037309;28;20200;-83
2021/11/14 03:32:04;;;;;;;10.27;6.95;;;;;17.00;101731.00;;;;5049104;28;20241;-83
2021/11/14 03:34:31;;;;;;;9.05;6.72;;;;;17.00;101726.00;;;;5033786;28;20204;-83
2021/11/14 03:36:59;;;;;;;9.93;6.53;;;;;17.00;101727.00;;;;5036067;28;20209;-83
2021/11/14 03:39:26;;;;;;;8.93;6.07;;;;;17.00;101725.00;;;;5047292;28;20208;-83
2021/11/14 03:41:54;;;;;;;9.98;6.68;;;;;17.00;101730.00;;;;5031719;28;20204;-83
2021/11/14 03:44:21;;;;;;;8.65;6.28;;;;;17.00;101730.00;;;;5034919;28;20206;-83
2021/11/14 03:46:50;;;;;;;11.32;6.93;;;;;17.00;101734.00;;;;5032292;28;20193;-83
2021/11/14 03:49:17;;;;;;;9.23;6.25;;;;;17.00;101741.00;;;;5045909;28;20582;-83
2021/11/14 03:51:44;;;;;;;9.00;6.53;;;;;17.00;101739.00;;;;5049888;28;20223;-83
2021/11/14 03:54:12;;;;;;;9.40;6.65;;;;;17.00;101747.00;;;;5045026;28;20206;-83
2021/11/14 03:56:39;;;;;;;10.45;7.07;;;;;16.90;101743.00;;;;5044501;28;20226;-83
2021/11/14 03:59:06;;;;;;;11.63;7.25;;;;;16.90;101750.00;;;;5039886;28;20189;-84
2021/11/14 04:01:33;;;;;;;9.60;6.95;;;;;16.90;101757.00;;;;5031647;28;20196;-83
2021/11/14 04:04:02;;;;;;;11.07;8.00;;;;;16.90;101762.00;;;;5032057;28;20204;-83
2021/11/14 04:06:30;;;;;;;9.50;6.70;;;;;16.90;101754.00;;;;5031858;28;20211;-83
2021/11/14 04:08:58;;;;;;;10.25;6.80;;;;;16.90;101761.00;;;;5038925;28;20200;-83
2021/11/14 04:11:27;;;;;;;10.38;6.63;;;;;16.90;101762.00;;;;5031459;28;20200;-83
2021/11/14 04:13:55;;;;;;;8.77;6.28;;;;;16.90;101764.00;;;;5031700;28;20211;-83
2021/11/14 04:16:22;;;;;;;9.82;6.80;;;;;16.90;101769.00;;;;5030569;28;20254;-84
2021/11/14 04:18:50;;;;;;;8.38;5.97;;;;;16.90;101763.00;;;;5038404;28;20203;-83
2021/11/14 04:21:18;;;;;;;10.13;7.30;;;;;16.80;101770.00;;;;5032645;28;20266;-83
2021/11/14 04:23:46;;;;;;;9.48;6.50;;;;;16.80;101774.00;;;;5031576;28;20251;-82
2021/11/14 04:26:13;;;;;;;9.40;6.65;;;;;16.80;101776.00;;;;5031238;28;20203;-83
2021/11/14 04:28:40;;;;;;;9.20;6.60;;;;;16.80;101776.00;;;;5036742;28;20673;-84
2021/11/14 04:31:08;;;;;;;10.48;6.68;;;;;16.80;101777.00;;;;5039253;28;20651;-83
2021/11/14 04:33:35;;;;;;;9.10;6.28;;;;;16.80;101782.00;;;;5031454;28;20200;-83
2021/11/14 04:36:03;;;;;;;9.57;6.82;;;;;16.80;101784.00;;;;5037709;28;20218;-83
2021/11/14 04:38:32;;;;;;;10.77;6.93;;;;;16.80;101789.00;;;;5047708;28;20188;-83
2021/11/14 04:40:59;;;;;;;11.95;7.32;;;;;16.80;101789.00;;;;5039703;28;20203;-84
2021/11/14 04:43:27;;;;;;;9.05;6.25;;;;;16.80;101785.00;;;;5042971;28;20211;-84
2021/11/14 04:45:54;;;;;;;9.38;6.10;;;;;16.80;101792.00;;;;5043513;28;20214;-83
2021/11/14 04:48:23;;;;;;;11.23;6.90;;;;;16.80;101793.00;;;;5039350;28;20224;-84
2021/11/14 04:50:51;;;;;;;12.13;7.40;;;;;16.80;101795.00;;;;5030284;28;20224;-84
2021/11/14 04:53:19;;;;;;;8.55;5.97;;;;;16.70;101799.00;;;;5031143;28;20200;-84
2021/11/14 04:55:48;;;;;;;11.38;7.32;;;;;16.70;101799.00;;;;5031276;28;20220;-83
2021/11/14 04:58:16;;;;;;;11.45;7.03;;;;;16.70;101803.00;;;;5048058;28;20226;-83
2021/11/14 05:00:45;;;;;;;12.43;7.43;;;;;16.70;101809.00;;;;5035753;28;20230;-83
2021/11/14 05:03:13;;;;;;;11.38;7.20;;;;;16.70;101815.00;;;;5046816;28;20200;-83
2021/11/14 05:05:41;;;;;;;11.88;7.68;;;;;16.70;101814.00;;;;5045351;28;20210;-83
2021/11/14 05:08:11;;;;;;;11.48;7.53;;;;;16.70;101818.00;;;;5048166;28;20673;-83
2021/11/14 05:10:39;;;;;;;11.93;7.57;;;;;16.70;101815.00;;;;5031225;28;20211;-83
2021/11/14 05:13:08;;;;;;;11.38;7.47;;;;;16.70;101818.00;;;;5029880;28;20196;-83
2021/11/14 05:15:35;;;;;;;13.48;8.15;;;;;16.70;101820.00;;;;5030671;28;20640;-83
2021/11/14 05:18:03;;;;;;;9.57;6.47;;;;;16.70;101821.00;;;;5041269;28;20202;-83
2021/11/14 05:20:30;;;;;;;11.98;8.50;;;;;16.70;101823.00;;;;5046267;28;20219;-83
2021/11/14 05:22:57;;;;;;;10.55;7.25;;;;;16.70;101826.00;;;;5049545;28;20200;-83
2021/11/14 05:25:25;;;;;;;15.52;8.05;;;;;16.70;101830.00;;;;5035292;28;20195;-83
2021/11/14 05:27:52;;;;;;;12.35;7.78;;;;;16.70;101836.00;;;;5035527;28;20203;-83
2021/11/14 05:30:21;;;;;;;12.27;7.47;;;;;16.70;101843.00;;;;5044329;28;20192;-83
2021/11/14 05:32:48;;;;;;;13.60;7.72;;;;;16.70;101843.00;;;;5030345;28;20193;-83
2021/11/14 05:35:16;;;;;;;13.88;8.65;;;;;16.60;101846.00;;;;5029547;28;20801;-83
2021/11/14 05:37:44;;;;;;;16.27;9.10;;;;;16.70;101842.00;;;;5046947;28;20196;-84
2021/11/14 05:40:12;;;;;;;17.20;9.05;;;;;16.70;101846.00;;;;5037785;28;20204;-84
2021/11/14 05:42:39;;;;;;;12.07;7.97;;;;;16.60;101852.00;;;;5029642;28;20586;-83
2021/11/14 05:45:08;;;;;;;14.13;8.63;;;;;16.70;101857.00;;;;5030337;28;20192;-83
2021/11/14 05:47:37;;;;;;;12.38;8.05;;;;;16.70;101861.00;;;;5030125;28;20203;-83
2021/11/14 05:50:08;;;;;;;13.75;7.68;;;;;16.60;101856.00;;;;5030070;28;20203;-83
2021/11/14 05:52:36;;;;;;;12.32;7.68;;;;;16.60;101864.00;;;;5031762;28;20192;-83
2021/11/14 05:55:06;;;;;;;13.75;8.90;;;;;16.60;101872.00;;;;5029887;28;20200;-83
2021/11/14 05:57:43;;;;;;;13.68;8.18;;;;;16.70;101874.00;;;;5039322;28;20653;-83
2021/11/14 06:00:14;;;;;;;11.77;7.82;;;;;16.60;101871.00;;;;5038223;28;20565;-83
2021/11/14 06:02:45;;;;;;;13.07;8.68;;;;;16.60;101876.00;;;;5049904;28;20199;-83
2021/11/14 06:05:15;;;;;;;14.80;8.20;;;;;16.60;101879.00;;;;5047996;28;20287;-83
2021/11/14 06:07:42;;;;;;;13.23;8.43;;;;;16.60;101879.00;;;;5042985;28;20291;-82
2021/11/14 06:10:11;;;;;;;11.73;7.93;;;;;16.50;101885.00;;;;5030698;28;20201;-83
2021/11/14 06:12:38;;;;;;;13.70;8.90;;;;;16.50;101882.00;;;;5031681;28;20579;-82
2021/11/14 06:15:07;;;;;;;16.48;9.82;;;;;16.50;101895.00;;;;5038009;28;20270;-82
2021/11/14 06:17:35;;;;;;;15.88;8.98;;;;;16.50;101902.00;;;;5029123;28;20207;-82
2021/11/14 06:20:05;;;;;;;16.55;9.02;;;;;16.50;101900.00;;;;5040197;28;20222;-83
2021/11/14 06:22:32;;;;;;;15.95;10.40;;;;;16.50;101903.00;;;;5040868;28;20684;-82
2021/11/14 06:25:00;;;;;;;15.13;8.63;;;;;16.50;101908.00;;;;5031174;28;20200;-82
2021/11/14 06:27:27;;;;;;;14.50;9.18;;;;;16.50;101910.00;;;;5038956;28;20680;-82
2021/11/14 06:29:55;;;;;;;14.93;8.48;;;;;16.50;101915.00;;;;5047763;28;20216;-82
2021/11/14 06:32:23;;;;;;;17.25;9.13;;;;;16.50;101920.00;;;;5049029;28;20200;-82
2021/11/14 06:34:50;;;;;;;15.48;9.10;;;;;16.50;101920.00;;;;5044349;28;20666;-82
2021/11/14 06:37:19;;;;;;;19.48;10.57;;;;;16.50;101919.00;;;;5036953;28;20227;-82
2021/11/14 06:39:46;;;;;;;16.45;9.95;;;;;16.50;101930.00;;;;5037460;28;20203;-83
2021/11/14 06:42:13;;;;;;;16.55;9.40;;;;;16.50;101924.00;;;;5036458;28;20257;-82
2021/11/14 06:44:41;;;;;;;14.82;9.10;;;;;16.50;101934.00;;;;5046885;28;20199;-83
2021/11/14 06:47:09;;;;;;;17.02;9.88;;;;;16.50;101942.00;;;;5032890;28;20211;-83
2021/11/14 06:49:36;;;;;;;15.63;8.85;;;;;16.50;101944.00;;;;5032563;28;20195;-82
2021/11/14 06:52:04;;;;;;;16.38;9.35;;;;;16.50;101944.00;;;;5035029;28;20219;-83
2021/11/14 06:54:33;;;;;;;16.58;9.70;;;;;16.50;101946.00;;;;5034929;28;20204;-83
2021/11/14 06:57:01;;;;;;;13.70;8.07;;;;;16.50;101954.00;;;;5029991;28;20599;-83
2021/11/14 06:59:28;;;;;;;18.70;10.50;;;;;16.50;101955.00;;;;5035376;28;20196;-82
2021/11/14 07:01:56;;;;;;;18.33;10.27;;;;;16.50;101955.00;;;;5038739;28;20208;-82
2021/11/14 07:04:23;;;;;;;20.23;10.77;;;;;16.50;101958.00;;;;5044809;28;20636;-82
2021/11/14 07:06:51;;;;;;;16.73;10.02;;;;;16.50;101962.00;;;;5037602;28;20219;-82
2021/11/14 07:09:19;;;;;;;16.90;9.57;;;;;16.60;101959.00;;;;5037694;28;20680;-83
2021/11/14 07:11:47;;;;;;;18.45;10.15;;;;;16.50;101967.00;;;;5038497;28;20207;-82
2021/11/14 07:14:14;;;;;;;19.38;10.30;;;;;16.50;101969.00;;;;5032218;28;20192;-83
2021/11/14 07:16:42;;;;;;;17.63;10.82;;;;;16.50;101974.00;;;;5040013;28;20709;-85
2021/11/14 07:19:09;;;;;;;20.15;11.00;;;;;16.50;101976.00;;;;5039407;28;20188;-84
2021/11/14 07:21:36;;;;;;;22.25;11.07;;;;;16.50;101976.00;;;;5046793;28;20216;-82
2021/11/14 07:24:04;;;;;;;19.95;10.35;;;;;16.60;101980.00;;;;5039704;28;20773;-84
2021/11/14 07:26:31;;;;;;;20.88;10.85;;;;;16.60;101984.00;;;;5035126;28;20211;-82
2021/11/14 07:29:00;;;;;;;19.25;10.23;;;;;16.50;101982.00;;;;5047368;28;20207;-83
2021/11/14 07:31:27;;;;;;;23.30;12.90;;;;;16.50;101992.00;;;;5034483;28;20214;-83
2021/11/14 07:33:54;;;;;;;22.27;10.73;;;;;16.60;101993.00;;;;5044562;28;20207;-83
2021/11/14 07:36:22;;;;;;;20.08;11.38;;;;;16.60;101994.00;;;;5044111;28;20223;-83
2021/11/14 07:38:49;;;;;;;18.60;10.15;;;;;16.50;102002.00;;;;5031682;28;20199;-82
2021/11/14 07:41:17;;;;;;;19.55;9.90;;;;;16.50;102001.00;;;;5044091;28;20204;-84
2021/11/14 07:43:44;;;;;;;20.23;10.48;;;;;16.50;102007.00;;;;5041079;28;20192;-84
2021/11/14 07:46:13;;;;;;;19.30;10.20;;;;;16.50;102010.00;;;;5041820;28;20195;-83
2021/11/14 07:48:40;;;;;;;20.65;11.23;;;;;16.50;102017.00;;;;5044581;28;20600;-84
2021/11/14 07:51:08;;;;;;;23.10;11.30;;;;;16.50;102023.00;;;;5044504;28;20231;-83
2021/11/14 07:53:35;;;;;;;20.27;9.90;;;;;16.50;102020.00;;;;5037148;28;20817;-85
2021/11/14 07:56:02;;;;;;;20.00;10.90;;;;;16.50;102032.00;;;;5042107;28;20215;-85
2021/11/14 07:58:31;;;;;;;18.63;10.40;;;;;16.60;102036.00;;;;5045853;28;20207;-84
2021/11/14 08:00:58;;;;;;;18.92;10.43;;;;;16.60;102038.00;;;;5050436;28;20203;-85
2021/11/14 08:03:31;;;;;;;20.42;11.60;;;;;16.60;102047.00;;;;5050363;28;20204;-85
2021/11/14 08:05:59;;;;;;;20.45;10.30;;;;;16.60;102042.00;;;;5041912;28;20726;-84
2021/11/14 08:08:26;;;;;;;20.63;10.93;;;;;16.60;102054.00;;;;5047159;28;20204;-84
2021/11/14 08:10:53;;;;;;;21.48;11.00;;;;;16.60;102054.00;;;;5030577;28;20251;-83
2021/11/14 08:13:21;;;;;;;19.13;9.48;;;;;16.60;102050.00;;;;5037958;28;20212;-82
2021/11/14 08:15:49;;;;;;;20.20;10.13;;;;;16.60;102054.00;;;;5034232;28;20282;-82
2021/11/14 08:18:18;;;;;;;17.83;9.70;;;;;16.60;102049.00;;;;5045120;28;20192;-82
2021/11/14 08:20:49;;;;;;;22.35;10.88;;;;;16.60;102052.00;;;;5033948;28;20212;-81
2021/11/14 08:23:17;;;;;;;22.27;11.85;;;;;16.60;102056.00;;;;5035525;28;20199;-83
2021/11/14 08:25:45;;;;;;;19.90;10.32;;;;;16.60;102061.00;;;;5034895;28;20903;-83
2021/11/14 08:28:13;;;;;;;20.05;10.75;;;;;16.60;102051.00;;;;5040313;28;20188;-82
2021/11/14 08:30:41;;;;;;;22.20;11.32;;;;;16.70;102063.00;;;;5044925;28;20192;-82
2021/11/14 08:33:10;;;;;;;17.33;9.98;;;;;16.70;102068.00;;;;5039423;28;20204;-82
2021/11/14 08:35:37;;;;;;;18.63;10.70;;;;;16.70;102069.00;;;;5040909;28;20199;-82
2021/11/14 08:38:08;;;;;;;23.45;12.25;;;;;16.70;102072.00;;;;5041711;28;20228;-83
2021/11/14 08:40:37;;;;;;;19.70;11.55;;;;;16.70;102069.00;;;;5030926;28;20200;-83
2021/11/14 08:43:07;;;;;;;21.65;11.38;;;;;16.70;102071.00;;;;5037394;28;20214;-82
2021/11/14 08:45:36;;;;;;;18.63;11.10;;;;;16.70;102080.00;;;;5044024;28;20207;-82
2021/11/14 08:48:04;;;;;;;20.70;11.20;;;;;16.80;102081.00;;;;5033300;28;20688;-83
2021/11/14 08:50:33;;;;;;;21.80;11.43;;;;;16.80;102084.00;;;;5049443;28;20239;-82
2021/11/14 08:53:01;;;;;;;19.13;10.77;;;;;16.80;102086.00;;;;5050398;28;20208;-83
2021/11/14 08:55:30;;;;;;;20.58;11.55;;;;;16.80;102091.00;;;;5036601;28;20208;-84
2021/11/14 08:58:00;;;;;;;19.73;10.57;;;;;16.80;102096.00;;;;5030779;28;20231;-84
2021/11/14 09:00:30;;;;;;;20.98;10.60;;;;;16.80;102092.00;;;;5039015;28;20696;-84
2021/11/14 09:02:59;;;;;;;20.65;10.68;;;;;16.80;102097.00;;;;5032242;28;20204;-83
2021/11/14 09:05:30;;;;;;;19.88;10.73;;;;;16.80;102103.00;;;;5030528;28;20204;-83
2021/11/14 09:08:00;;;;;;;19.10;9.73;;;;;16.90;102101.00;;;;5030614;28;20197;-83
2021/11/14 09:10:29;;;;;;;20.30;9.85;;;;;16.90;102103.00;;;;5029831;28;20295;-82
2021/11/14 09:12:57;;;;;;;17.52;9.23;;;;;16.90;102116.00;;;;5044105;28;20207;-83
2021/11/14 09:15:25;;;;;;;16.02;9.35;;;;;16.90;102116.00;;;;5032373;28;20200;-83
2021/11/14 09:17:53;;;;;;;15.77;8.88;;;;;16.90;102119.00;;;;5030121;28;20228;-83
2021/11/14 09:20:21;;;;;;;18.60;9.02;;;;;16.90;102126.00;;;;5029440;28;20216;-83
2021/11/14 09:22:48;;;;;;;17.75;9.85;;;;;16.90;102122.00;;;;5030959;28;20235;-82
2021/11/14 09:25:17;;;;;;;18.35;10.52;;;;;16.90;102127.00;;;;5030923;28;20201;-84
2021/11/14 09:27:45;;;;;;;15.63;8.70;;;;;17.00;102129.00;;;;5031458;28;20211;-84
2021/11/14 09:30:13;;;;;;;19.45;10.05;;;;;17.00;102134.00;;;;5030074;28;20198;-84
2021/11/14 09:32:41;;;;;;;17.70;9.65;;;;;17.00;102132.00;;;;5029809;28;20208;-85
2021/11/14 09:35:09;;;;;;;17.42;10.07;;;;;17.00;102136.00;;;;5043738;28;20200;-84
2021/11/14 09:37:38;;;;;;;18.80;10.98;;;;;17.10;102142.00;;;;5034774;28;20655;-84
2021/11/14 09:40:09;;;;;;;20.67;10.50;;;;;17.10;102147.00;;;;5031508;28;20192;-84
2021/11/14 09:42:37;;;;;;;17.85;10.73;;;;;17.10;102150.00;;;;5049293;28;20195;-82
2021/11/14 09:45:08;;;;;;;20.52;10.98;;;;;17.10;102157.00;;;;5057406;28;20199;-83
2021/11/14 09:47:38;;;;;;;16.65;10.35;;;;;17.10;102156.00;;;;5056382;28;20252;-82
2021/11/14 09:50:06;;;;;;;16.65;10.23;;;;;17.10;102153.00;;;;5052661;28;20204;-82
2021/11/14 09:52:35;;;;;;;16.13;9.20;;;;;17.10;102156.00;;;;5035478;28;20208;-83
2021/11/14 09:55:03;;;;;;;18.25;10.80;;;;;17.10;102163.00;;;;5035094;28;20586;-83
2021/11/14 09:57:30;;;;;;;15.77;9.15;;;;;17.20;102163.00;;;;5055262;28;20222;-83
2021/11/14 09:59:57;;;;;;;17.27;9.50;;;;;17.20;102171.00;;;;5032290;28;20203;-82
2021/11/14 10:02:26;;;;;;;14.88;9.48;;;;;17.20;102169.00;;;;5044336;28;20195;-84
2021/11/14 10:04:53;;;;;;;14.05;8.70;;;;;17.20;102181.00;;;;5036817;28;20203;-83
2021/11/14 10:07:22;;;;;;;16.02;8.95;;;;;17.20;102179.00;;;;5029402;28;20195;-83
2021/11/14 10:09:52;;;;;;;15.43;9.55;;;;;17.20;102182.00;;;;5036703;28;20202;-82
2021/11/14 10:12:22;;;;;;;14.65;8.73;;;;;17.20;102186.00;;;;5035036;28;20197;-82
2021/11/14 10:14:50;;;;;;;18.83;9.20;;;;;17.20;102189.00;;;;5031822;28;20596;-84
2021/11/14 10:17:21;;;;;;;16.02;9.82;;;;;17.20;102186.00;;;;5035501;28;20212;-82
2021/11/14 10:20:10;;;;;;;14.30;8.35;;;;;17.10;102186.00;;;;5050008;28;20195;-83
2021/11/14 10:22:41;;;;;;;16.40;8.57;;;;;17.20;102191.00;;;;5036414;28;20548;-83
2021/11/14 10:25:10;;;;;;;13.68;7.47;;;;;17.20;102190.00;;;;5031849;28;20208;-83
2021/11/14 10:27:37;;;;;;;12.50;7.65;;;;;17.20;102191.00;;;;5042953;28;21013;-82
2021/11/14 10:30:07;;;;;;;15.85;9.13;;;;;17.20;102195.00;;;;5037437;28;20899;-83
2021/11/14 10:32:34;;;;;;;11.40;6.93;;;;;17.30;102197.00;;;;5049644;28;20196;-83
2021/11/14 10:35:03;;;;;;;13.90;8.07;;;;;17.30;102199.00;;;;5048289;28;20203;-84
2021/11/14 10:37:33;;;;;;;13.77;8.35;;;;;17.30;102201.00;;;;5044193;28;20227;-82
2021/11/14 10:40:03;;;;;;;12.90;8.10;;;;;17.30;102203.00;;;;5048138;28;20195;-83
2021/11/14 10:42:33;;;;;;;12.90;7.22;;;;;17.30;102209.00;;;;5039343;28;20239;-83
2021/11/14 10:45:04;;;;;;;13.20;8.50;;;;;17.30;102211.00;;;;5039170;28;20204;-83
2021/11/14 10:47:32;;;;;;;14.15;8.35;;;;;17.30;102206.00;;;;5048418;28;20191;-83
2021/11/14 10:50:02;;;;;;;12.85;7.95;;;;;17.30;102208.00;;;;5029234;28;20678;-87
2021/11/14 10:52:32;;;;;;;13.70;8.18;;;;;17.30;102219.00;;;;5028456;28;20197;-83
2021/11/14 10:55:02;;;;;;;14.15;8.02;;;;;17.30;102219.00;;;;5037345;28;20223;-84
2021/11/14 10:57:31;;;;;;;10.95;7.25;;;;;17.30;102213.00;;;;5034757;28;20220;-84
2021/11/14 10:59:59;;;;;;;10.93;7.35;;;;;17.30;102221.00;;;;5030301;28;20196;-83
2021/11/14 11:02:28;;;;;;;12.57;7.15;;;;;17.40;102225.00;;;;5029690;28;20235;-83
2021/11/14 11:05:07;;;;;;;12.35;7.53;;;;;17.40;102226.00;;;;5039862;28;20191;-83
2021/11/14 11:07:36;;;;;;;12.85;8.05;;;;;17.40;102234.00;;;;5035189;28;20670;-82
2021/11/14 11:10:04;;;;;;;13.27;7.78;;;;;17.40;102229.00;;;;5035172;28;20555;-83
2021/11/14 11:12:34;;;;;;;14.75;8.55;;;;;17.50;102234.00;;;;5033631;28;20232;-83
2021/11/14 11:15:04;;;;;;;13.43;8.13;;;;;17.50;102226.00;;;;5036769;28;20681;-82
2021/11/14 11:17:45;;;;;;;12.43;7.47;;;;;17.40;102233.00;;;;5039354;28;20227;-83
2021/11/14 11:20:14;;;;;;;13.18;7.82;;;;;17.50;102232.00;;;;5039953;28;20224;-82
2021/11/14 11:22:51;;;;;;;14.98;9.25;;;;;17.50;102232.00;;;;5041122;28;20290;-80
2021/11/14 11:25:30;;;;;;;13.73;7.43;;;;;17.50;102230.00;;;;5035297;28;20204;-81
2021/11/14 11:27:57;;;;;;;13.05;8.25;;;;;17.60;102231.00;;;;5031695;28;20684;-80
2021/11/14 11:30:30;;;;;;;13.15;7.93;;;;;17.50;102236.00;;;;5047812;28;20196;-81
2021/11/14 11:32:58;;;;;;;10.18;6.82;;;;;17.60;102232.00;;;;5050494;28;20518;-81
2021/11/14 11:35:26;;;;;;;10.25;6.55;;;;;17.60;102234.00;;;;5046207;28;20202;-81
2021/11/14 11:37:55;;;;;;;9.52;6.03;;;;;17.60;102234.00;;;;5035313;28;20230;-81
2021/11/14 11:40:23;;;;;;;11.68;6.93;;;;;17.60;102232.00;;;;5032385;28;20200;-81
2021/11/14 11:42:51;;;;;;;10.93;6.78;;;;;17.60;102238.00;;;;5039441;28;20203;-81
2021/11/14 11:45:27;;;;;;;10.30;6.18;;;;;17.60;102235.00;;;;5031857;28;20197;-81
2021/11/14 11:47:56;;;;;;;13.05;7.47;;;;;17.60;102240.00;;;;5045017;28;20187;-83
2021/11/14 11:50:29;;;;;;;9.52;6.38;;;;;17.60;102239.00;;;;5047991;28;20235;-82
2021/11/14 11:52:58;;;;;;;9.82;6.60;;;;;17.60;102239.00;;;;5049935;28;20202;-82
2021/11/14 11:55:30;;;;;;;11.77;7.28;;;;;17.60;102244.00;;;;5047106;28;20741;-85
2021/11/14 11:58:10;;;;;;;10.77;6.95;;;;;17.60;102232.00;;;;5040718;28;20220;-83
2021/11/14 12:00:54;;;;;;;10.27;6.72;;;;;17.60;102241.00;;;;5042471;28;20206;-84
2021/11/14 12:03:27;;;;;;;9.52;6.80;;;;;17.60;102244.00;;;;5042222;28;20196;-83
2021/11/14 12:05:55;;;;;;;11.98;7.32;;;;;17.70;102243.00;;;;5043223;28;20579;-83